Time;durP1;ratioP1;P1;durP2;ratioP2;P2;SDS_P1;SDS_P2;PMS_P1;PMS_P2;Temp;Humidity;BMP_temperature;BMP_pressure;BME280_temperature;BME280_humidity;BME280_pressure;Samples;Min_cycle;Max_cycle;Signal;HPM_P1;HPM_P2
2023/01/02 00:01:09;;;;;;;;;9.67;8.33;;;;;14.24;69.05;100702.47;5058630;28;51419;-74
2023/01/02 00:03:34;;;;;;;;;9.33;6.00;;;;;14.48;69.17;100741.75;5040898;28;45439;-73
2023/01/02 00:06:04;;;;;;;;;3.67;3.67;;;;;14.97;69.23;100838.00;5058592;28;45286;-73
2023/01/02 00:08:30;;;;;;;;;5.00;4.00;;;;;14.90;69.44;100830.66;5058097;28;45564;-74
2023/01/02 00:10:56;;;;;;;;;6.00;3.00;;;;;14.93;69.57;100842.03;5059601;28;45440;-73
2023/01/02 00:13:21;;;;;;;;;3.67;3.67;;;;;14.70;69.40;100805.28;5058810;28;45388;-74
2023/01/02 00:15:47;;;;;;;;;6.00;5.33;;;;;14.72;69.67;100805.94;5058393;28;46189;-74
2023/01/02 00:18:12;;;;;;;;;2.33;2.33;;;;;14.32;69.82;100743.41;5040390;28;45320;-73
2023/01/02 00:20:37;;;;;;;;;2.00;2.00;;;;;14.82;69.60;100835.22;5058556;28;45416;-72
2023/01/02 00:23:03;;;;;;;;;4.67;4.67;;;;;14.86;69.78;100853.44;5058741;28;45376;-73
2023/01/02 00:25:28;;;;;;;;;7.00;3.67;;;;;14.60;69.99;100810.78;5058224;28;45444;-73
2023/01/02 00:27:55;;;;;;;;;3.67;3.67;;;;;14.83;70.45;100859.13;5058564;28;45427;-73
2023/01/02 00:30:20;;;;;;;;;4.67;4.33;;;;;14.54;70.43;100800.75;5041286;28;45313;-73
2023/01/02 00:32:45;;;;;;;;;7.00;4.33;;;;;14.81;71.10;100860.28;5059052;28;45378;-73
2023/01/02 00:35:11;;;;;;;;;5.67;4.00;;;;;14.79;71.12;100857.78;5056844;28;48353;-74
2023/01/02 00:37:36;;;;;;;;;9.67;5.67;;;;;14.48;71.57;100800.59;5040033;28;45292;-73
2023/01/02 00:40:03;;;;;;;;;7.33;5.00;;;;;14.70;71.48;100832.03;5058261;28;45184;-74
2023/01/02 00:42:28;;;;;;;;;6.33;4.33;;;;;14.74;71.90;100852.09;5058203;28;45664;-74
2023/01/02 00:44:53;;;;;;;;;5.67;4.33;;;;;14.74;72.18;100843.22;5039603;28;48477;-73
2023/01/02 00:47:18;;;;;;;;;6.33;5.00;;;;;14.71;72.23;100855.09;5057540;28;55118;-75
2023/01/02 00:49:44;;;;;;;;;5.00;4.33;;;;;14.58;72.41;100834.19;5057490;28;54680;-74
2023/01/02 00:52:09;;;;;;;;;3.00;3.00;;;;;14.64;72.18;100846.09;5057803;28;47327;-73
2023/01/02 00:54:34;;;;;;;;;3.00;3.00;;;;;14.65;72.82;100854.97;5039662;28;48424;-74
2023/01/02 00:57:00;;;;;;;;;3.33;3.33;;;;;14.66;73.14;100857.47;5058085;28;45206;-72
2023/01/02 00:59:25;;;;;;;;;4.00;4.00;;;;;14.58;73.35;100852.94;5057928;28;45269;-71
2023/01/02 01:01:50;;;;;;;;;3.67;2.67;;;;;13.78;73.42;100717.31;5057494;28;50035;-73
2023/01/02 01:04:16;;;;;;;;;5.00;5.00;;;;;14.59;73.55;100851.09;5057482;28;45943;-75
2023/01/02 01:06:41;;;;;;;;;6.33;4.00;;;;;14.41;73.54;100820.94;5057541;28;45391;-72
2023/01/02 01:09:06;;;;;;;;;4.50;2.50;;;;;14.52;73.82;100842.06;5039726;28;45539;-72
2023/01/02 01:11:32;;;;;;;;;4.00;4.00;;;;;14.58;74.21;100855.59;5057925;28;45366;-73
2023/01/02 01:13:57;;;;;;;;;4.00;3.00;;;;;14.52;74.24;100858.97;5038707;28;58446;-74
2023/01/02 01:16:25;;;;;;;;;5.33;5.33;;;;;14.54;74.33;100854.28;5057610;28;45438;-73
2023/01/02 01:18:55;;;;;;;;;3.67;3.33;;;;;14.52;74.54;100853.59;5057613;28;45381;-75
2023/01/02 01:21:20;;;;;;;;;4.33;4.33;;;;;14.50;74.87;100855.63;5056868;28;45260;-74
2023/01/02 01:23:53;;;;;;;;;3.67;3.67;;;;;14.40;74.82;100862.91;5057005;28;45655;-72
2023/01/02 01:26:20;;;;;;;;;6.67;3.00;;;;;14.43;74.48;100861.78;5057427;28;46048;-73
2023/01/02 01:28:45;;;;;;;;;6.33;5.00;;;;;14.19;74.38;100833.97;5039212;28;45424;-76
2023/01/02 01:31:14;;;;;;;;;4.00;4.00;;;;;14.00;74.62;100797.69;5057330;28;45249;-74
2023/01/02 01:33:41;;;;;;;;;4.67;3.33;;;;;14.41;74.63;100856.56;5056904;28;45431;-74
2023/01/02 01:36:09;;;;;;;;;6.00;3.67;;;;;14.24;74.52;100829.00;5039288;28;46964;-73
2023/01/02 01:38:35;;;;;;;;;4.33;4.33;;;;;14.46;75.08;100870.34;5057606;28;45280;-74
2023/01/02 01:41:01;;;;;;;;;4.00;3.00;;;;;14.44;75.28;100860.81;5058004;28;45225;-72
2023/01/02 01:43:56;;;;;;;;;4.00;3.33;;;;;14.42;75.46;100849.41;5057116;28;45605;-74
2023/01/02 01:46:30;;;;;;;;;4.33;3.33;;;;;14.42;75.22;100860.09;5028092;28;46378;-75
2023/01/02 01:49:21;;;;;;;;;5.00;4.00;;;;;14.39;75.35;100866.59;5057265;28;45500;-78
2023/01/02 01:51:56;;;;;;;;;4.33;3.67;;;;;13.75;75.30;100769.25;5057445;28;45411;-73
2023/01/02 01:54:25;;;;;;;;;5.00;4.00;;;;;14.38;75.11;100883.66;5056721;28;45767;-74
2023/01/02 01:56:57;;;;;;;;;3.67;3.67;;;;;14.28;75.57;100869.59;5056898;28;45452;-73
2023/01/02 01:59:23;;;;;;;;;1.67;1.33;;;;;13.95;75.39;100828.59;5057275;28;45487;-74
2023/01/02 02:01:49;;;;;;;;;5.00;3.00;;;;;14.02;76.17;100859.03;5057378;28;45712;-73
2023/01/02 02:04:16;;;;;;;;;4.33;4.33;;;;;13.96;76.34;100863.19;5057073;28;46499;-76
2023/01/02 02:06:42;;;;;;;;;2.67;2.67;;;;;14.24;76.57;100906.53;5056868;28;45343;-73
2023/01/02 02:09:36;;;;;;;;;2.33;2.33;;;;;14.13;76.82;100900.66;5056782;28;45424;-73
2023/01/02 02:12:03;;;;;;;;;2.33;2.33;;;;;14.12;76.99;100912.34;5057082;28;45649;-74
2023/01/02 02:14:28;;;;;;;;;2.67;2.33;;;;;14.21;76.85;100922.88;5056319;28;48477;-72
2023/01/02 02:17:31;;;;;;;;;3.00;3.00;;;;;14.24;76.87;100927.94;5056627;28;45366;-73
2023/01/02 02:19:59;;;;;;;;;5.00;2.00;;;;;14.21;77.09;100941.59;5038672;28;45495;-71
2023/01/02 02:22:42;;;;;;;;;5.00;2.67;;;;;14.20;77.05;100941.78;5039035;28;45552;-72
2023/01/02 02:25:55;;;;;;;;;5.67;4.33;;;;;14.18;77.32;100949.97;5056506;28;45620;-73
2023/01/02 02:28:23;;;;;;;;;5.00;3.00;;;;;14.17;77.48;100945.63;4958446;28;45283;-74
2023/01/02 02:31:07;;;;;;;;;3.33;2.00;;;;;14.10;77.79;100939.25;5046335;28;45365;-72
2023/01/02 02:33:50;;;;;;;;;2.67;2.67;;;;;14.12;77.69;100937.25;5059541;28;45360;-72
2023/01/02 02:36:25;;;;;;;;;2.00;2.00;;;;;14.06;78.39;100935.22;5041619;28;48082;-71
2023/01/02 02:39:14;;;;;;;;;2.00;2.00;;;;;13.92;78.41;100909.94;5059885;28;45438;-73
2023/01/02 02:42:13;;;;;;;;;5.00;2.33;;;;;14.07;78.41;100952.09;5060086;28;45258;-74
2023/01/02 02:45:00;;;;;;;;;3.67;2.00;;;;;11.57;78.52;100549.25;5059973;28;45495;-75
2023/01/02 02:47:47;;;;;;;;;3.67;2.67;;;;;14.10;78.46;100936.56;5059580;28;46903;-73
2023/01/02 02:50:28;;;;;;;;;1.00;1.00;;;;;14.17;78.50;100936.75;5059651;28;45326;-72
2023/01/02 02:53:07;;;;;;;;;3.00;3.00;;;;;14.19;78.58;100934.75;5041553;28;45392;-72
2023/01/02 02:55:46;;;;;;;;;2.00;2.00;;;;;14.00;78.34;100898.44;5060229;28;45239;-73
2023/01/02 02:58:13;;;;;;;;;1.33;0.67;;;;;14.20;78.80;100933.75;5060205;28;45644;-72
2023/01/02 03:00:39;;;;;;;;;1.00;1.00;;;;;14.22;78.45;100934.44;5059823;28;45213;-73
2023/01/02 03:03:36;;;;;;;;;3.67;2.00;;;;;14.20;78.68;100947.97;5059788;28;45293;-72
2023/01/02 03:06:17;;;;;;;;;3.00;2.00;;;;;14.14;79.12;100945.09;5015111;28;45546;-73
2023/01/02 03:09:01;;;;;;;;;1.00;0.67;;;;;14.11;79.17;100948.09;5060467;28;45441;-72
2023/01/02 03:11:41;;;;;;;;;5.00;3.00;;;;;14.07;79.00;100944.94;5059387;28;45531;-72
2023/01/02 03:14:19;;;;;;;;;2.67;2.33;;;;;14.00;79.10;100943.88;5059194;28;45499;-72
2023/01/02 03:16:49;;;;;;;;;1.00;1.00;;;;;13.84;79.09;100919.78;5059628;28;45395;-74
2023/01/02 03:19:43;;;;;;;;;1.00;0.67;;;;;14.07;78.79;100947.59;5041245;28;46670;-74
2023/01/02 03:22:18;;;;;;;;;1.67;0.33;;;;;14.04;79.05;100953.28;5050949;28;45559;-72
2023/01/02 03:24:49;;;;;;;;;3.00;2.67;;;;;13.79;78.38;100898.84;5059573;28;45270;-72
2023/01/02 03:27:19;;;;;;;;;1.00;1.00;;;;;14.04;77.94;100958.63;5059738;28;45332;-72
2023/01/02 03:30:16;;;;;;;;;1.67;1.33;;;;;14.04;78.51;100953.28;5059133;28;45404;-72
2023/01/02 03:32:51;;;;;;;;;3.00;1.50;;;;;13.59;78.02;100874.22;5039909;28;46023;-73
2023/01/02 03:35:23;;;;;;;;;0.00;0.00;;;;;13.84;77.81;100930.47;5060438;28;45349;-72
2023/01/02 03:37:52;;;;;;;;;2.33;1.00;;;;;14.00;77.09;100954.56;5060140;28;45506;-73
2023/01/02 03:40:33;;;;;;;;;0.67;0.67;;;;;13.74;76.70;100905.69;5058943;28;45922;-72
2023/01/02 03:43:08;;;;;;;;;0.67;0.00;;;;;13.51;76.34;100887.56;5058909;28;45232;-72
2023/01/02 03:45:47;;;;;;;;;0.00;0.00;;;;;13.68;76.18;100929.38;5058607;28;45314;-73
2023/01/02 03:48:22;;;;;;;;;0.00;0.00;;;;;13.87;75.75;100984.44;5059076;28;45359;-74
2023/01/02 03:50:51;;;;;;;;;0.00;0.00;;;;;13.89;76.18;100997.63;5058933;28;45954;-72
2023/01/02 03:53:17;;;;;;;;;0.00;0.00;;;;;13.85;76.26;100990.94;5058457;28;45210;-71
2023/01/02 03:55:53;;;;;;;;;0.00;0.00;;;;;13.16;75.94;100893.00;5058790;28;45252;-72
2023/01/02 03:58:35;;;;;;;;;0.00;0.00;;;;;13.46;75.61;100943.28;5059072;28;45241;-74
2023/01/02 04:01:10;;;;;;;;;1.00;0.00;;;;;13.52;76.31;100972.03;5058467;28;45454;-73
2023/01/02 04:03:43;;;;;;;;;0.00;0.00;;;;;13.61;76.15;100981.75;5058536;28;45380;-72
2023/01/02 04:06:13;;;;;;;;;0.00;0.00;;;;;13.50;76.00;100968.69;5058564;28;45373;-72
2023/01/02 04:08:54;;;;;;;;;0.00;0.00;;;;;13.68;76.46;100996.19;5058903;28;45435;-70
2023/01/02 04:11:23;;;;;;;;;0.00;0.00;;;;;13.70;76.18;100996.88;5058317;28;46676;-74
2023/01/02 04:13:57;;;;;;;;;1.00;0.00;;;;;13.53;76.39;100978.22;5058350;28;45422;-72
2023/01/02 04:16:28;;;;;;;;;0.00;0.00;;;;;13.64;75.87;100986.81;5079024;28;45313;-71
2023/01/02 04:19:00;;;;;;;;;0.00;0.00;;;;;13.57;76.15;100969.72;5078783;28;45396;-73
2023/01/02 04:21:29;;;;;;;;;0.00;0.00;;;;;13.54;76.11;100977.22;5077258;28;47472;-72
2023/01/02 04:24:01;;;;;;;;;0.00;0.00;;;;;13.66;75.71;100992.84;5078584;28;45368;-71
2023/01/02 04:26:35;;;;;;;;;1.00;1.00;;;;;13.68;76.07;101011.38;5078532;28;45352;-72
2023/01/02 04:29:01;;;;;;;;;0.00;0.00;;;;;13.68;76.20;101024.75;5078772;28;45450;-73
2023/01/02 04:31:34;;;;;;;;;0.00;0.00;;;;;13.66;75.99;101019.56;5078358;28;45995;-72
2023/01/02 04:34:02;;;;;;;;;0.00;0.00;;;;;13.14;76.14;100953.72;5078407;28;45324;-73
2023/01/02 04:36:28;;;;;;;;;0.00;0.00;;;;;13.52;76.49;101011.25;5078408;28;45452;-73
2023/01/02 04:38:53;;;;;;;;;0.00;0.00;;;;;13.07;76.45;100945.50;5078556;28;45420;-72
2023/01/02 04:41:26;;;;;;;;;0.00;0.00;;;;;13.48;76.95;101026.78;5078142;28;45958;-72
2023/01/02 04:43:56;;;;;;;;;0.00;0.00;;;;;13.38;76.83;101000.16;5078397;28;45349;-72
2023/01/02 04:46:22;;;;;;;;;0.00;0.00;;;;;13.57;76.85;101044.53;5078618;28;45510;-72
2023/01/02 04:48:48;;;;;;;;;0.00;0.00;;;;;13.07;76.80;100970.34;5078583;28;45598;-70
2023/01/02 04:51:13;;;;;;;;;0.00;0.00;;;;;13.53;76.91;101048.50;5077950;28;45719;-72
2023/01/02 04:53:38;;;;;;;;;0.00;0.00;;;;;13.52;77.13;101054.00;5077729;28;45503;-72
2023/01/02 04:56:04;;;;;;;;;0.00;0.00;;;;;13.38;77.22;101031.34;5076556;28;56132;-71
2023/01/02 04:58:29;;;;;;;;;0.00;0.00;;;;;13.43;77.05;101044.28;5078625;28;45197;-73
2023/01/02 05:00:55;;;;;;;;;0.00;0.00;;;;;12.98;77.42;100981.09;5059564;28;47290;-73
2023/01/02 05:03:20;;;;;;;;;0.00;0.00;;;;;13.54;77.85;101079.56;5059655;28;45343;-73
2023/01/02 05:05:45;;;;;;;;;0.00;0.00;;;;;13.42;77.60;101054.13;5077960;28;45281;-71
2023/01/02 05:08:11;;;;;;;;;2.50;1.25;;;;;12.66;77.15;100914.97;5077947;28;45255;-72
2023/01/02 05:10:36;;;;;;;;;0.00;0.00;;;;;13.52;77.63;101083.38;5077644;28;46409;-70
2023/01/02 05:13:01;;;;;;;;;1.00;0.00;;;;;13.43;77.07;101070.97;5077420;28;45436;-75
2023/01/02 05:15:27;;;;;;;;;0.67;0.00;;;;;13.26;77.17;101049.47;5064636;28;45661;-71
2023/01/02 05:17:52;;;;;;;;;0.33;0.33;;;;;13.28;77.31;101071.50;5057698;28;45543;-73
2023/01/02 05:20:18;;;;;;;;;0.00;0.00;;;;;13.35;76.91;101104.63;5057315;28;46460;-72
2023/01/02 05:25:31;;;;;;;;;0.00;0.00;;;;;13.28;77.45;101078.69;5057339;28;45494;-72
2023/01/02 05:27:56;;;;;;;;;0.00;0.00;;;;;13.35;77.28;101117.13;5057721;28;45424;-75
2023/01/02 05:30:21;;;;;;;;;0.00;0.00;;;;;13.27;77.40;101104.53;5057158;28;46321;-72
2023/01/02 05:32:47;;;;;;;;;0.67;0.00;;;;;13.14;77.17;101088.03;5057329;28;45546;-72
2023/01/02 05:35:13;;;;;;;;;0.00;0.00;;;;;13.21;77.25;101098.97;5039281;28;45283;-72
2023/01/02 05:37:38;;;;;;;;;0.00;0.00;;;;;13.07;77.13;101077.13;5057549;28;45230;-73
2023/01/02 05:40:04;;;;;;;;;3.00;1.33;;;;;13.42;77.10;101133.41;5057050;28;48959;-73
2023/01/02 05:42:29;;;;;;;;;0.00;0.00;;;;;13.42;76.84;101136.91;5057173;28;45274;-72
2023/01/02 05:44:55;;;;;;;;;0.00;0.00;;;;;13.36;76.45;101129.47;5057410;28;45211;-74
2023/01/02 05:47:20;;;;;;;;;0.00;0.00;;;;;13.39;76.67;101140.69;5057572;28;45628;-74
2023/01/02 05:49:45;;;;;;;;;0.00;0.00;;;;;13.42;76.61;101144.91;5057037;28;46319;-72
2023/01/02 05:52:11;;;;;;;;;0.00;0.00;;;;;13.24;76.73;101125.38;5056891;28;45490;-73
2023/01/02 05:54:36;;;;;;;;;0.00;0.00;;;;;13.09;76.75;101101.84;5057209;28;45254;-72
2023/01/02 05:57:01;;;;;;;;;0.00;0.00;;;;;13.26;76.89;101139.41;5057724;28;45453;-74
2023/01/02 05:59:27;;;;;;;;;0.00;0.00;;;;;13.40;76.64;101161.06;5057271;28;45662;-73
2023/01/02 06:01:52;;;;;;;;;0.00;0.00;;;;;13.42;76.72;101142.25;5057067;28;45388;-72
2023/01/02 06:04:18;;;;;;;;;0.00;0.00;;;;;13.36;77.06;101134.81;5057522;28;46034;-74
2023/01/02 06:06:43;;;;;;;;;0.00;0.00;;;;;13.30;76.78;101138.13;5057722;28;45447;-73
2023/01/02 06:09:12;;;;;;;;;0.00;0.00;;;;;12.52;77.18;101040.84;5042113;28;47489;-73
2023/01/02 06:11:38;;;;;;;;;0.00;0.00;;;;;13.04;76.95;101125.47;5060301;28;45473;-74
2023/01/02 06:14:03;;;;;;;;;0.00;0.00;;;;;12.84;77.33;101099.91;5059892;28;45515;-74
2023/01/02 06:16:28;;;;;;;;;1.00;0.00;;;;;13.02;77.53;101116.78;5060586;28;45247;-72
2023/01/02 06:18:54;;;;;;;;;0.00;0.00;;;;;13.19;77.06;101160.53;5041962;28;47460;-73
2023/01/02 06:21:20;;;;;;;;;0.00;0.00;;;;;12.45;77.43;101043.28;5060260;28;45597;-73
2023/01/02 06:23:46;;;;;;;;;0.75;0.75;;;;;12.85;77.60;101128.28;5060204;28;45269;-73
2023/01/02 06:26:17;;;;;;;;;1.50;1.50;;;;;13.16;77.85;101183.97;5060547;28;45399;-71
2023/01/02 06:28:43;;;;;;;;;0.00;0.00;;;;;13.16;77.59;101181.31;5060009;28;45767;-72
2023/01/02 06:31:11;;;;;;;;;1.00;0.00;;;;;12.41;77.46;101060.53;5058536;28;47065;-71
2023/01/02 06:33:37;;;;;;;;;0.00;0.00;;;;;13.10;77.53;101180.94;5059956;28;45463;-73
2023/01/02 06:36:05;;;;;;;;;1.00;1.00;;;;;12.64;77.50;101101.84;5042101;28;46447;-71
2023/01/02 06:38:30;;;;;;;;;0.00;0.00;;;;;13.10;77.26;101191.59;5059463;28;45726;-74
2023/01/02 06:40:58;;;;;;;;;0.00;0.00;;;;;13.15;77.50;101211.66;5059728;28;45737;-75
2023/01/02 06:43:24;;;;;;;;;0.00;0.00;;;;;12.45;76.94;101097.44;5059779;28;45319;-72
2023/01/02 06:45:50;;;;;;;;;1.00;0.00;;;;;13.02;77.69;101214.72;5059994;28;45246;-71
2023/01/02 06:48:16;;;;;;;;;0.00;0.00;;;;;12.99;77.69;101199.81;5059243;28;45644;-73
2023/01/02 06:50:44;;;;;;;;;0.00;0.00;;;;;12.98;77.72;101222.16;5041636;28;45285;-74
2023/01/02 06:53:13;;;;;;;;;1.00;0.00;;;;;12.94;77.88;101210.09;5059527;28;45380;-72
2023/01/02 06:55:39;;;;;;;;;0.00;0.00;;;;;12.67;78.30;101170.91;5059207;28;54481;-72
2023/01/02 06:58:04;;;;;;;;;0.00;0.00;;;;;12.94;77.91;101209.25;5059475;28;45735;-71
2023/01/02 07:00:30;;;;;;;;;0.00;0.00;;;;;12.94;77.79;101203.91;5059548;28;45172;-72
2023/01/02 07:02:55;;;;;;;;;1.67;0.00;;;;;12.87;78.25;101201.00;5059420;28;45413;-74
2023/01/02 07:05:21;;;;;;;;;0.00;0.00;;;;;11.97;77.66;101049.63;5041468;28;45171;-73
2023/01/02 07:07:46;;;;;;;;;1.00;1.00;;;;;12.83;78.17;101201.47;5059571;28;45594;-72
2023/01/02 07:10:11;;;;;;;;;0.00;0.00;;;;;12.78;77.98;101212.53;5059233;28;45451;-72
2023/01/02 07:12:37;;;;;;;;;0.00;0.00;;;;;12.56;78.27;101163.06;5059540;28;45448;-73
2023/01/02 07:15:04;;;;;;;;;0.00;0.00;;;;;12.88;77.78;101215.19;5059443;28;45308;-72
2023/01/02 07:17:30;;;;;;;;;0.00;0.00;;;;;12.86;77.60;101211.84;5059374;28;46559;-72
2023/01/02 07:19:56;;;;;;;;;1.00;1.00;;;;;12.87;77.71;101203.69;5058059;28;45319;-72
2023/01/02 07:22:21;;;;;;;;;0.00;0.00;;;;;12.82;77.82;101205.94;5059386;28;45366;-73
2023/01/02 07:24:46;;;;;;;;;0.00;0.00;;;;;12.75;77.72;101196.84;5059723;28;45529;-74
2023/01/02 07:27:12;;;;;;;;;0.67;0.67;;;;;12.52;77.44;101166.19;5059022;28;47711;-72
2023/01/02 07:29:37;;;;;;;;;0.67;0.67;;;;;12.83;77.59;101218.31;5040241;28;60787;-74
2023/01/02 07:32:03;;;;;;;;;0.00;0.00;;;;;12.51;77.54;101164.50;5040828;28;45430;-74
2023/01/02 07:34:28;;;;;;;;;0.00;0.00;;;;;12.92;77.32;101228.09;5059279;28;45293;-73
2023/01/02 07:36:53;;;;;;;;;0.00;0.00;;;;;12.44;77.18;101156.25;5058246;28;58286;-75
2023/01/02 07:39:19;;;;;;;;;0.00;0.00;;;;;12.52;77.16;101166.19;5059078;28;45254;-74
2023/01/02 07:41:44;;;;;;;;;0.00;0.00;;;;;12.59;77.53;101199.28;5041083;28;45545;-71
2023/01/02 07:44:09;;;;;;;;;0.00;0.00;;;;;12.03;77.29;101114.88;5040961;28;45312;-74
2023/01/02 07:46:35;;;;;;;;;0.00;0.00;;;;;12.63;78.02;101208.69;5058052;28;54173;-72
2023/01/02 07:49:00;;;;;;;;;1.00;1.00;;;;;12.48;76.87;101198.47;5058768;28;45247;-72
2023/01/02 07:51:25;;;;;;;;;0.00;0.00;;;;;12.66;78.05;101243.91;5040857;28;45442;-73
2023/01/02 07:53:51;;;;;;;;;0.00;0.00;;;;;12.73;77.79;101260.19;5040281;28;45502;-73
2023/01/02 07:56:16;;;;;;;;;1.67;0.00;;;;;12.24;77.82;101186.63;5040343;28;47571;-73
2023/01/02 07:58:41;;;;;;;;;0.00;0.00;;;;;12.51;78.05;101233.84;5058845;28;45457;-72
2023/01/02 08:01:09;;;;;;;;;3.00;3.00;;;;;12.63;77.85;101262.03;5059967;28;45479;-72
2023/01/02 08:03:35;;;;;;;;;1.00;0.00;;;;;12.52;77.84;101259.53;5061439;28;45275;-75
2023/01/02 08:06:12;;;;;;;;;1.00;1.00;;;;;12.44;77.43;101249.59;5058692;28;46699;-74
2023/01/02 08:08:37;;;;;;;;;0.00;0.00;;;;;12.39;77.98;101258.00;5058303;28;45226;-75
2023/01/02 08:11:07;;;;;;;;;0.00;0.00;;;;;12.57;78.04;101300.78;5040378;28;45511;-75
2023/01/02 08:13:33;;;;;;;;;0.00;0.00;;;;;11.19;77.85;101080.84;5056789;28;45537;-73
2023/01/02 08:16:10;;;;;;;;;0.00;0.00;;;;;12.50;77.55;101302.34;5057838;28;46479;-73
2023/01/02 08:18:36;;;;;;;;;0.00;0.00;;;;;12.59;78.02;101305.97;5058426;28;45379;-72
2023/01/02 08:21:02;;;;;;;;;1.33;0.00;;;;;12.54;77.97;101309.06;5058562;28;45669;-73
2023/01/02 08:23:28;;;;;;;;;0.00;0.00;;;;;12.23;77.64;101239.13;5058198;28;45274;-71
2023/01/02 08:25:59;;;;;;;;;0.00;0.00;;;;;11.99;77.60;101212.88;5057928;28;46508;-74
2023/01/02 08:28:25;;;;;;;;;0.00;0.00;;;;;12.59;77.34;101319.31;5058240;28;45428;-75
2023/01/02 08:30:51;;;;;;;;;0.67;0.67;;;;;12.59;77.62;101329.97;5058239;28;45304;-73
2023/01/02 08:33:16;;;;;;;;;1.00;0.00;;;;;12.47;77.82;101308.81;5057763;28;45313;-72
2023/01/02 08:35:41;;;;;;;;;1.00;1.00;;;;;12.57;77.03;101326.63;5039809;28;48189;-74
2023/01/02 08:38:07;;;;;;;;;0.00;0.00;;;;;11.83;76.96;101202.81;5058194;28;45341;-73
2023/01/02 08:40:32;;;;;;;;;0.67;0.67;;;;;12.66;76.84;101331.09;5058051;28;45231;-74
2023/01/02 08:42:58;;;;;;;;;0.00;0.00;;;;;12.60;76.85;101331.66;5058435;28;45537;-74
2023/01/02 08:45:23;;;;;;;;;0.00;0.00;;;;;12.66;76.16;101345.28;5058132;28;45625;-75
2023/01/02 08:47:48;;;;;;;;;4.67;3.67;;;;;12.69;76.27;101360.16;5057567;28;56632;-74
2023/01/02 08:50:14;;;;;;;;;2.33;1.67;;;;;12.70;75.78;101359.19;5057519;28;45365;-76
2023/01/02 08:52:39;;;;;;;;;0.00;0.00;;;;;12.46;75.38;101341.81;5058063;28;45439;-73
2023/01/02 08:55:05;;;;;;;;;0.00;0.00;;;;;12.45;75.16;101347.28;5057996;28;46679;-74
2023/01/02 08:57:31;;;;;;;;;0.00;0.00;;;;;12.72;75.44;101406.06;5057611;28;45199;-72
2023/01/02 08:59:57;;;;;;;;;1.00;0.00;;;;;12.25;75.05;101346.44;5058067;28;45338;-73
2023/01/02 09:02:22;;;;;;;;;0.00;0.00;;;;;11.90;74.61;101303.50;5058579;28;45369;-74
2023/01/02 09:04:48;;;;;;;;;1.00;0.00;;;;;12.64;74.92;101458.47;5057668;28;45647;-73
2023/01/02 09:07:13;;;;;;;;;0.00;0.00;;;;;12.61;75.47;101450.72;5057337;28;45324;-74
2023/01/02 09:09:38;;;;;;;;;0.00;0.00;;;;;12.63;74.80;101473.63;5057963;28;45807;-74
2023/01/02 09:12:04;;;;;;;;;0.00;0.00;;;;;12.65;75.21;101454.81;5057660;28;45449;-74
2023/01/02 09:14:29;;;;;;;;;3.00;2.00;;;;;12.69;74.75;101461.53;5041971;28;47800;-74
2023/01/02 09:16:56;;;;;;;;;1.00;1.00;;;;;11.42;74.88;101240.31;5057266;28;45507;-75
2023/01/02 09:19:23;;;;;;;;;0.00;0.00;;;;;12.79;74.53;101447.22;5057682;28;45515;-74
2023/01/02 09:21:48;;;;;;;;;1.00;0.00;;;;;12.83;74.85;101439.78;5040175;28;45304;-73
2023/01/02 09:24:14;;;;;;;;;0.33;0.33;;;;;12.84;74.75;101428.13;5057050;28;45810;-75
2023/01/02 09:26:42;;;;;;;;;1.00;1.00;;;;;12.82;74.42;101426.59;5057222;28;45241;-76
2023/01/02 09:29:09;;;;;;;;;0.00;0.00;;;;;12.78;74.49;101448.19;5057319;28;45325;-73
2023/01/02 09:31:35;;;;;;;;;2.33;2.33;;;;;12.76;74.92;101435.97;5057381;28;45531;-74
2023/01/02 09:34:00;;;;;;;;;0.00;0.00;;;;;12.82;74.41;101472.78;5038721;28;47181;-74
2023/01/02 09:36:25;;;;;;;;;0.00;0.00;;;;;12.75;74.94;101461.81;5038971;28;46081;-75
2023/01/02 09:38:58;;;;;;;;;0.00;0.00;;;;;12.62;74.99;101449.75;5057448;28;45311;-74
2023/01/02 09:41:54;;;;;;;;;0.00;0.00;;;;;12.85;74.81;101488.50;5056783;28;45885;-73
2023/01/02 09:44:40;;;;;;;;;2.00;0.00;;;;;12.84;74.92;101491.34;5056953;28;45830;-71
2023/01/02 09:47:09;;;;;;;;;0.00;0.00;;;;;12.22;74.83;101384.06;5039101;28;46021;-75
2023/01/02 09:49:53;;;;;;;;;0.00;0.00;;;;;12.55;74.77;101445.94;5057128;28;45439;-74
2023/01/02 09:52:27;;;;;;;;;0.00;0.00;;;;;12.82;75.54;101498.63;5059252;28;45269;-74
2023/01/02 09:54:52;;;;;;;;;0.00;0.00;;;;;12.57;74.77;101471.50;5045783;28;48790;-72
2023/01/02 09:57:26;;;;;;;;;0.00;0.00;;;;;12.83;75.28;101529.69;5070373;28;45488;-74
2023/01/02 10:00:21;;;;;;;;;0.00;0.00;;;;;12.79;75.34;101537.09;5057022;28;45327;-75
2023/01/02 10:03:11;;;;;;;;;0.33;0.33;;;;;12.79;75.17;101543.25;5076813;28;45581;-74
2023/01/02 10:05:39;;;;;;;;;2.67;2.33;;;;;12.82;75.49;101547.50;5058585;28;48661;-74
2023/01/02 10:08:05;;;;;;;;;1.33;1.33;;;;;12.82;75.16;101542.16;5058466;28;45406;-74
2023/01/02 10:10:47;;;;;;;;;1.00;1.00;;;;;12.61;75.44;101522.75;5075499;28;45541;-75
2023/01/02 10:13:35;;;;;;;;;0.00;0.00;;;;;12.53;75.69;101507.44;5069463;28;45515;-76
2023/01/02 10:16:05;;;;;;;;;0.00;0.00;;;;;12.46;75.28;101490.31;5066762;28;46547;-73
2023/01/02 10:18:38;;;;;;;;;0.00;0.00;;;;;12.43;75.56;101491.44;5056839;28;45286;-74
2023/01/02 10:21:19;;;;;;;;;3.00;1.00;;;;;12.76;75.71;101534.69;5042902;28;45485;-72
2023/01/02 10:23:54;;;;;;;;;0.00;0.00;;;;;12.52;75.93;101478.25;5073770;28;45511;-72
2023/01/02 10:26:27;;;;;;;;;0.25;0.25;;;;;12.62;75.83;101479.09;5075275;28;48106;-72
2023/01/02 10:29:11;;;;;;;;;2.33;2.00;;;;;12.88;75.53;101498.91;5071474;28;45482;-75
2023/01/02 10:31:40;;;;;;;;;0.00;0.00;;;;;12.94;75.29;101494.81;5076798;28;45418;-73
2023/01/02 10:34:15;;;;;;;;;1.33;1.00;;;;;13.09;75.05;101525.44;5072623;28;45544;-75
2023/01/02 10:36:42;;;;;;;;;0.00;0.00;;;;;13.06;74.68;101513.22;5061636;28;46709;-73
2023/01/02 10:39:14;;;;;;;;;1.00;0.00;;;;;13.16;74.48;101539.06;5073041;28;45566;-73
2023/01/02 10:41:42;;;;;;;;;0.00;0.00;;;;;12.89;74.30;101484.56;5065657;28;45469;-74
2023/01/02 10:44:22;;;;;;;;;2.00;0.00;;;;;13.04;74.24;101509.03;5062641;28;45505;-74
2023/01/02 10:46:47;;;;;;;;;0.00;0.00;;;;;12.86;74.20;101479.53;5056172;28;46529;-75
2023/01/02 10:49:14;;;;;;;;;1.00;1.00;;;;;13.17;73.81;101533.59;5058905;28;45414;-73
2023/01/02 10:52:05;;;;;;;;;0.00;0.00;;;;;13.25;73.68;101564.97;5056089;28;45387;-71
2023/01/02 10:54:47;;;;;;;;;1.00;1.00;;;;;13.20;74.05;101577.88;5057432;28;45323;-72
2023/01/02 10:57:19;;;;;;;;;1.67;1.67;;;;;12.47;73.97;101460.84;5041285;28;49071;-75
2023/01/02 10:59:45;;;;;;;;;1.00;1.00;;;;;13.22;73.68;101603.50;5059147;28;45327;-76
2023/01/02 11:02:26;;;;;;;;;1.00;1.00;;;;;13.09;73.73;101579.69;5060522;28;45497;-73
2023/01/02 11:04:51;;;;;;;;;1.67;1.67;;;;;12.90;73.62;101523.63;5059294;28;45737;-72
2023/01/02 11:07:24;;;;;;;;;2.67;1.33;;;;;12.93;73.28;101523.34;5059598;28;46418;-74
2023/01/02 11:09:55;;;;;;;;;0.00;0.00;;;;;13.14;73.21;101562.41;5059657;28;45237;-73
2023/01/02 11:12:22;;;;;;;;;1.00;1.00;;;;;13.22;72.74;101559.91;5060070;28;45371;-73
2023/01/02 11:14:48;;;;;;;;;0.33;0.33;;;;;13.16;73.09;101577.28;5059169;28;45497;-73
2023/01/02 11:17:23;;;;;;;;;3.00;1.00;;;;;13.37;72.66;101612.75;5059159;28;46968;-73
2023/01/02 11:19:51;;;;;;;;;3.67;2.00;;;;;13.12;71.78;101559.03;5058939;28;45487;-72
2023/01/02 11:22:19;;;;;;;;;2.00;2.00;;;;;13.45;71.99;101608.53;5059277;28;45440;-71
2023/01/02 11:24:54;;;;;;;;;0.00;0.00;;;;;13.24;71.67;101568.63;5059482;28;45257;-75
2023/01/02 11:27:20;;;;;;;;;2.00;2.00;;;;;13.28;71.48;101570.03;5058115;28;45862;-74
2023/01/02 11:29:48;;;;;;;;;1.00;1.00;;;;;12.63;71.89;101454.13;5059593;28;45553;-75
2023/01/02 11:32:27;;;;;;;;;1.67;1.67;;;;;13.65;71.59;101589.69;5060160;28;45269;-74
2023/01/02 11:34:59;;;;;;;;;1.00;1.00;;;;;13.81;71.35;101598.91;5060684;28;45539;-72
2023/01/02 11:37:25;;;;;;;;;3.00;3.00;;;;;13.28;71.46;101501.44;5053043;28;48657;-75
2023/01/02 11:40:00;;;;;;;;;2.00;2.00;;;;;13.87;70.79;101603.69;5072878;28;45595;-74